KAUS/AUS METAR and TAF weather

Enter ICAO airport designator
Station Type Date Time Source
KAUS METAR 2019/06/16 07:53 UTC NOAA

KAUS 160753Z 18013KT 10SM SCT019 SCT027 26/23 A2986 RMK AO2 SLP099 T02610233 $


Station Type Date Time Source
KAUS Decoded METAR 2019/06/16 07:53 UTC NOAA

AUSTIN-BERGSTROM INTERNATIONAL AIRPORT, TX, United States (KAUS) 30-11N 097-41W 172M
Jun 16, 2019 - 03:53 AM EDT / 2019.06.16 0753 UTC
Wind: from the S (180 degrees) at 15 MPH (13 KT):0
Visibility: 10 mile(s):0
Sky conditions: partly cloudy
Temperature: 79.0 F (26.1 C)
Dew Point: 73.9 F (23.3 C)
Relative Humidity: 84%
Pressure (altimeter): 29.86 in. Hg (1011 hPa)
ob: KAUS 160753Z 18013KT 10SM SCT019 SCT027 26/23 A2986 RMK AO2 SLP099 T02610233
cycle: 8

Station Type Date Time Source
KAUS TAF 2019/06/16 06:40 UTC NOAA

TAF KAUS 160538Z 1606/1712 17010KT P6SM OVC025
FM160800 17009KT P6SM OVC015
FM161400 18012G22KT P6SM OVC030
FM161800 18013G23KT P6SM VCTS BKN035CB
FM170600 17010KT P6SM VCTS OVC015CB

Example: see airport list